createdAt,value
2023-04-18T00:03:25.746Z,25.23
2023-04-18T00:09:13.218Z,25.33
2023-04-18T00:15:06.783Z,22.50
2023-04-18T00:20:57.254Z,24.00
2023-04-18T00:33:11.867Z,29.17
2023-04-18T00:39:02.837Z,24.77
2023-04-18T00:44:49.814Z,30.38
2023-04-18T00:50:40.485Z,29.20
2023-04-18T00:56:30.748Z,31.55
2023-04-18T01:02:19.981Z,26.25
2023-04-18T01:08:07.396Z,27.88
2023-04-18T01:14:03.593Z,24.55
2023-04-18T01:19:51.126Z,24.63
2023-04-18T01:25:39.147Z,26.42
2023-04-18T01:31:34.059Z,22.80
2023-04-18T01:37:23.936Z,28.70
2023-04-18T01:43:12.767Z,26.40
2023-04-18T01:49:08.058Z,34.45
2023-04-18T01:54:54.826Z,21.55
2023-04-18T02:00:41.555Z,23.23
2023-04-18T02:06:28.606Z,26.77
2023-04-18T02:12:15.345Z,28.75
2023-04-18T02:18:03.675Z,25.13
2023-04-18T02:23:51.077Z,29.60
2023-04-18T02:29:38.230Z,23.80
2023-04-18T02:35:35.396Z,25.27
2023-04-18T02:41:22.457Z,25.13
2023-04-18T02:47:16.337Z,22.38
2023-04-18T02:53:06.042Z,24.38
2023-04-18T02:59:07.446Z,26.75
2023-04-18T03:05:12.454Z,23.88
2023-04-18T03:10:59.481Z,26.75
2023-04-18T03:16:49.072Z,39.95
2023-04-18T03:22:40.409Z,25.63
2023-04-18T03:28:27.354Z,30.48
2023-04-18T03:34:14.439Z,35.70
2023-04-18T03:40:01.626Z,27.33
2023-04-18T03:45:50.565Z,24.50
2023-04-18T03:51:44.343Z,30.88
2023-04-18T03:57:31.364Z,29.48
2023-04-18T04:03:19.271Z,32.00
2023-04-18T04:09:07.182Z,24.10
2023-04-18T04:14:54.911Z,28.08
2023-04-18T04:20:42.143Z,21.63
2023-04-18T04:26:35.838Z,24.23
2023-04-18T04:32:39.022Z,22.73
2023-04-18T04:38:25.907Z,19.50
2023-04-18T04:44:26.091Z,34.20
2023-04-18T04:50:15.823Z,23.40
2023-04-18T04:56:04.771Z,24.10
2023-04-18T05:01:53.353Z,23.58
2023-04-18T05:07:40.537Z,24.25
2023-04-18T05:13:27.341Z,21.77
2023-04-18T05:19:14.626Z,24.92
2023-04-18T05:25:02.482Z,21.20
2023-04-18T05:30:49.561Z,18.23
2023-04-18T05:36:38.290Z,22.17
2023-04-18T05:42:25.526Z,24.00
2023-04-18T05:48:15.542Z,28.70
2023-04-18T05:54:03.083Z,26.40
2023-04-18T05:59:50.119Z,22.90
2023-04-18T06:05:37.128Z,41.55
2023-04-18T06:11:24.367Z,22.65
2023-04-18T06:17:15.011Z,22.25
2023-04-18T06:23:04.893Z,25.42
2023-04-18T06:29:38.400Z,33.65
2023-04-18T06:35:33.669Z,20.05
2023-04-18T06:41:20.670Z,26.90
2023-04-18T06:47:07.779Z,19.98
2023-04-18T06:52:57.257Z,25.45
2023-04-18T06:59:30.156Z,28.08
2023-04-18T07:05:19.786Z,24.50
2023-04-18T07:11:18.675Z,20.67
2023-04-18T07:17:18.225Z,30.15
2023-04-18T07:23:10.784Z,22.83
2023-04-18T07:28:58.038Z,21.67
2023-04-18T07:34:45.123Z,24.50
2023-04-18T07:40:32.527Z,28.08
2023-04-18T07:46:19.380Z,29.00
2023-04-18T07:52:14.665Z,22.25
2023-04-18T07:58:01.353Z,27.02
2023-04-18T08:03:48.550Z,17.60
2023-04-18T08:09:35.576Z,20.90
2023-04-18T08:15:27.752Z,16.98
2023-04-18T08:21:17.053Z,20.63
2023-04-18T08:27:04.043Z,20.48
2023-04-18T08:32:51.345Z,21.52
2023-04-18T08:38:38.256Z,18.13
2023-04-18T08:44:27.821Z,18.42
2023-04-18T08:50:14.591Z,12.50
2023-04-18T08:56:05.928Z,20.08
2023-04-18T09:01:59.641Z,18.33
2023-04-18T09:07:48.033Z,23.63
2023-04-18T09:13:39.799Z,10.15
2023-04-18T09:19:26.696Z,14.13
2023-04-18T09:25:29.228Z,17.73
2023-04-18T09:37:15.675Z,13.35
2023-04-18T09:43:37.392Z,12.50
2023-04-18T10:10:51.867Z,23.65
2023-04-18T10:24:55.787Z,10.80
2023-04-18T10:30:50.052Z,16.42
2023-04-18T10:44:49.289Z,11.93
2023-04-18T10:51:29.155Z,7.57
2023-04-18T10:57:18.637Z,15.23
2023-04-18T11:03:06.242Z,11.63
2023-04-18T11:09:38.330Z,14.55
2023-04-18T11:15:50.759Z,14.85
2023-04-18T11:21:41.274Z,14.18
2023-04-18T11:27:29.848Z,18.50
2023-04-18T11:42:18.562Z,15.63
2023-04-18T11:48:39.179Z,6.90
2023-04-18T11:54:45.598Z,6.75
2023-04-18T12:00:44.806Z,7.93
2023-04-18T12:07:26.718Z,10.55
2023-04-18T12:20:09.197Z,7.80
2023-04-18T12:26:04.649Z,10.20
2023-04-18T12:31:54.075Z,7.10
2023-04-18T12:37:51.445Z,11.95
2023-04-18T12:43:45.077Z,7.05
2023-04-18T12:49:47.535Z,16.45
2023-04-18T12:55:35.880Z,8.63
2023-04-18T13:02:00.765Z,11.43
2023-04-18T13:08:44.484Z,9.43
2023-04-18T13:14:47.773Z,4.40
2023-04-18T13:20:38.042Z,5.00
2023-04-18T13:26:39.655Z,7.28
2023-04-18T13:32:44.166Z,6.55
2023-04-18T13:38:31.207Z,8.90
2023-04-18T13:44:25.203Z,4.65
2023-04-18T13:50:13.789Z,4.57
2023-04-18T13:56:05.498Z,12.80
2023-04-18T14:01:53.713Z,8.00
2023-04-18T14:07:54.216Z,10.20
2023-04-18T14:13:41.255Z,11.02
2023-04-18T14:19:28.153Z,10.40
2023-04-18T14:25:17.166Z,5.43
2023-04-18T14:31:06.765Z,6.03
2023-04-18T14:36:53.885Z,10.75
2023-04-18T14:42:40.985Z,2.65
2023-04-18T14:48:30.109Z,5.45
2023-04-18T14:54:17.156Z,7.90
2023-04-18T15:00:07.540Z,6.55
2023-04-18T15:05:57.565Z,7.30
2023-04-18T15:11:44.764Z,7.55
2023-04-18T15:17:34.240Z,7.70
2023-04-18T15:23:21.780Z,6.22
2023-04-18T15:29:08.892Z,5.93
2023-04-18T15:34:56.119Z,10.65
2023-04-18T15:40:43.720Z,11.95
2023-04-18T15:46:30.731Z,6.53
2023-04-18T15:52:19.602Z,10.73
2023-04-18T15:58:07.758Z,11.88
2023-04-18T16:03:54.859Z,9.95
2023-04-18T16:09:42.010Z,10.88
2023-04-18T16:15:33.256Z,12.00
2023-04-18T16:21:20.337Z,9.07
2023-04-18T16:27:10.463Z,10.82
2023-04-18T16:32:57.712Z,17.10
2023-04-18T16:38:44.823Z,13.82
2023-04-18T16:44:33.219Z,16.02
2023-04-18T16:50:30.369Z,14.43
2023-04-18T16:56:24.366Z,18.65
2023-04-18T17:02:12.011Z,14.20
2023-04-18T17:08:20.141Z,14.93
2023-04-18T17:14:57.069Z,15.32
2023-04-18T17:20:44.222Z,26.83
2023-04-18T17:26:44.854Z,11.80
2023-04-18T17:32:52.955Z,25.00
2023-04-18T17:38:42.570Z,14.68
2023-04-18T17:44:29.650Z,16.13
2023-04-18T17:50:22.705Z,17.00
2023-04-18T17:56:29.497Z,24.00
2023-04-18T18:02:28.501Z,16.45
2023-04-18T18:08:16.102Z,18.17
2023-04-18T18:14:09.973Z,14.60
2023-04-18T18:19:57.033Z,14.32
2023-04-18T18:25:44.096Z,11.15
2023-04-18T18:31:49.877Z,9.65
2023-04-18T18:37:39.067Z,8.95
2023-04-18T18:43:27.981Z,14.40
2023-04-18T19:28:20.236Z,11.88
2023-04-18T19:34:36.415Z,13.75
2023-04-18T19:41:03.842Z,14.68
2023-04-18T19:54:00.334Z,10.45
2023-04-18T19:59:50.028Z,14.98
2023-04-18T20:06:40.480Z,20.60
2023-04-18T20:13:51.459Z,16.80
2023-04-18T20:19:47.393Z,14.38
2023-04-18T20:53:57.805Z,14.48
2023-04-18T21:00:07.476Z,17.88
2023-04-18T21:06:36.139Z,14.55
2023-04-18T21:12:23.316Z,21.58
2023-04-18T21:18:10.646Z,13.50
2023-04-18T21:23:57.603Z,15.60
2023-04-18T21:44:55.241Z,13.45
2023-04-18T21:50:43.073Z,16.85
2023-04-18T21:56:30.261Z,16.77
2023-04-18T22:02:20.440Z,17.25
2023-04-18T22:15:43.710Z,17.42
2023-04-18T22:21:38.617Z,23.70
2023-04-18T22:27:49.181Z,23.17
2023-04-18T22:33:36.543Z,21.88
2023-04-18T22:39:25.099Z,25.98
2023-04-18T22:45:13.745Z,21.00
2023-04-18T22:51:02.003Z,13.13
2023-04-18T22:56:50.399Z,20.73
2023-04-18T23:02:38.486Z,26.73
2023-04-18T23:08:25.539Z,19.88
2023-04-18T23:14:12.656Z,18.08
2023-04-18T23:19:59.516Z,24.92
2023-04-18T23:25:53.352Z,27.83
2023-04-18T23:31:43.699Z,24.88
2023-04-18T23:37:34.347Z,22.90
2023-04-18T23:43:21.472Z,27.13
2023-04-18T23:49:08.702Z,24.55
2023-04-18T23:54:58.842Z,21.77
